WetterOnline ( https://www.wetteronline.de )

Wetter aktuell Blaubeuren

Aktuelles Wetter: Ulm-Mähringen (592m)

6-stündlich | Neueste Meldungen
Ortszeit Temperatur Wetter
Mi, 28.09. 20:00 7.1° C wolkig
Mi, 28.09. 14:00 9.0° C bewölkt
Mi, 28.09. 8:00 7.9° C Sprühregen
Mi, 28.09. 2:00 7.4° C Regen
Di, 27.09. 20:00 7.0° C bedeckt
Di, 27.09. 14:00 9.5° C leicht bewölkt
Di, 27.09. 8:00 7.7° C leichter Regen
Di, 27.09. 2:00 9.4° C leichter Regen
Ortszeit Temperatur Wetter
Mi, 28.09. 23:30 6.0° C bewölkt
Mi, 28.09. 23:20 6.0° C bewölkt
Mi, 28.09. 23:10 6.2° C bedeckt
Mi, 28.09. 23:00 6.2° C bewölkt
Mi, 28.09. 22:50 6.2° C bewölkt
Mi, 28.09. 22:40 6.3° C bedeckt
Mi, 28.09. 22:30 6.7° C bedeckt
Mi, 28.09. 22:00 6.7° C bedeckt
Mi, 28.09. 21:30 6.8° C bedeckt
Mi, 28.09. 21:00 6.9° C bewölkt
Mi, 28.09. 20:30 7.0° C bewölkt
Ortszeit Relative Feuchte Sichtweite
Mi, 28.09. 20:00 90% 55 km
Mi, 28.09. 14:00 80% >70 km
Mi, 28.09. 8:00 94% 21 km
Mi, 28.09. 2:00 95% 40 km
Di, 27.09. 20:00 84% >70 km
Di, 27.09. 14:00 76% >70 km
Di, 27.09. 8:00 88% 28 km
Di, 27.09. 2:00 83% 26 km
Ortszeit Relative Feuchte Sichtweite
Mi, 28.09. 23:30 95% 40 km
Mi, 28.09. 23:20 95% -
Mi, 28.09. 23:10 96% -
Mi, 28.09. 23:00 94% 35 km
Mi, 28.09. 22:50 94% -
Mi, 28.09. 22:40 93% -
Mi, 28.09. 22:30 91% 50 km
Mi, 28.09. 22:00 92% 55 km
Mi, 28.09. 21:30 91% 50 km
Mi, 28.09. 21:00 90% 65 km
Mi, 28.09. 20:30 89% 45 km
Ortszeit Niederschlagsmenge Niederschlagsart
Mi, 28.09. 20:00 4 l/m2 in 12 Std. -
Mi, 28.09. 14:00 4 l/m2 in 6 Std. Regen
Mi, 28.09. 8:00 4 l/m2 in 12 Std. Regen
Mi, 28.09. 2:00 3 l/m2 in 6 Std. Regen
Di, 27.09. 20:00 4 l/m2 in 12 Std. Regen
Di, 27.09. 14:00 2 l/m2 in 6 Std. Regen
Di, 27.09. 8:00 3 l/m2 in 12 Std. Regen
Di, 27.09. 2:00 0.2 l/m2 in 6 Std. Regen
Ortszeit Niederschlagsmenge Niederschlagsart
Mi, 28.09. 23:30 0.0 l/m2 in 1 Std. -
Mi, 28.09. 23:20 keine Meldung -
Mi, 28.09. 23:10 keine Meldung -
Mi, 28.09. 23:00 0.0 l/m2 in 1 Std. -
Mi, 28.09. 22:50 keine Meldung -
Mi, 28.09. 22:40 keine Meldung -
Mi, 28.09. 22:30 0.0 l/m2 in 1 Std. -
Mi, 28.09. 22:00 0.0 l/m2 in 1 Std. -
Mi, 28.09. 21:30 0.0 l/m2 in 1 Std. -
Mi, 28.09. 21:00 0.0 l/m2 in 1 Std. -
Mi, 28.09. 20:30 0.0 l/m2 in 1 Std. -
Ortszeit Stärke Spitze Richtung
km/h Bft. km/h Grad Sektor
Mi, 28.09. 20:00 9 2 24 250° W
Mi, 28.09. 14:00 9 2 33 250° W
Mi, 28.09. 8:00 14 3 40 220° SW
Mi, 28.09. 2:00 13 3 30 220° SW
Di, 27.09. 20:00 14 3 54 240° SW
Di, 27.09. 14:00 18 3 43 240° SW
Di, 27.09. 8:00 14 3 40 250° W
Di, 27.09. 2:00 15 3 33 220° SW
Ortszeit Stärke Spitze Richtung
km/h Bft. km/h Grad Sektor
Mi, 28.09. 23:30 4 1 7 260° W
Mi, 28.09. 23:20 4 1 - 260° W
Mi, 28.09. 23:10 4 1 - 230° SW
Mi, 28.09. 23:00 6 1 7 210° SW
Mi, 28.09. 22:50 6 1 - 210° SW
Mi, 28.09. 22:40 6 1 - 200° S
Mi, 28.09. 22:30 4 1 7 220° SW
Mi, 28.09. 22:00 7 2 11 240° SW
Mi, 28.09. 21:30 6 1 11 220° SW
Mi, 28.09. 21:00 7 2 11 230° SW
Mi, 28.09. 20:30 7 2 11 230° SW
Ortszeit Untergrenze Bedeckung Gattung
total tief tief mittel hoch
Mi, 28.09. 20:00 1800 m 8/8 2/8 - - -
Mi, 28.09. 14:00 540 m 8/8 7/8 - - -
Mi, 28.09. 8:00 270 m 8/8 8/8 - - -
Mi, 28.09. 2:00 240 m 8/8 8/8 - - -
Di, 27.09. 20:00 990 m 8/8 8/8 - - -
Di, 27.09. 14:00 510 m 6/8 1/8 - - -
Di, 27.09. 8:00 570 m 8/8 8/8 - - -
Di, 27.09. 2:00 750 m 7/8 7/8 - - -
Ortszeit Bedeckungsgrad in Achtel und Wolkenuntergrenze
Mi, 28.09. 23:30 6(1500m) 7(1500m) 8(5100m)
Mi, 28.09. 23:20 6(1500m) 7(1500m) 8(5100m)
Mi, 28.09. 23:10 8
Mi, 28.09. 23:00 5(1500m) 8(5100m) 8(6300m)
Mi, 28.09. 22:50 5(1500m) 8(5100m) 8(6300m)
Mi, 28.09. 22:40 8
Mi, 28.09. 22:30 8(1500m)
Mi, 28.09. 22:00 1(1500m) 8(1800m)
Mi, 28.09. 21:30 8(1800m) 8(4800m)
Mi, 28.09. 21:00 7(1800m) 8(4500m)
Mi, 28.09. 20:30 4(1800m) 8(4200m)
Ortszeit Luftdruck NN (hPa) Tendenz (hPa in 3 Std.)
Mi, 28.09. 20:00 1001 + 0,4
Mi, 28.09. 14:00 1000 + 0,7
Mi, 28.09. 8:00 997 - 1,5
Mi, 28.09. 2:00 1002 - 1,9
Di, 27.09. 20:00 1004 + 0,5
Di, 27.09. 14:00 1003 - 0,2
Di, 27.09. 8:00 1001 + 1,5
Di, 27.09. 2:00 1001 - 2,1
Ortszeit Luftdruck NN (hPa) Tendenz (hPa in 3 Std.)
Mi, 28.09. 23:30 1003 + 1,1
Mi, 28.09. 23:20 1003 keine Meldung
Mi, 28.09. 23:10 1003 keine Meldung
Mi, 28.09. 23:00 1003 + 1,4
Mi, 28.09. 22:50 1003 keine Meldung
Mi, 28.09. 22:40 1003 keine Meldung
Mi, 28.09. 22:30 1003 + 1,3
Mi, 28.09. 22:00 1003 + 1,5
Mi, 28.09. 21:30 1003 + 1,3
Mi, 28.09. 21:00 1002 + 1,2
Mi, 28.09. 20:30 1002 + 0,7
Ortszeit Schneehöhe (cm)
Mi, 28.09. 20:00 0
Mi, 28.09. 14:00 0
Mi, 28.09. 8:00 0
Mi, 28.09. 2:00 0
Di, 27.09. 20:00 0
Di, 27.09. 14:00 0
Di, 27.09. 8:00 0
Di, 27.09. 2:00 0
Ortszeit Schneehöhe (cm)
Mi, 28.09. 23:30 0
Mi, 28.09. 23:20 0
Mi, 28.09. 23:10 0
Mi, 28.09. 23:00 0
Mi, 28.09. 22:50 0
Mi, 28.09. 22:40 0
Mi, 28.09. 22:30 0
Mi, 28.09. 22:00 0
Mi, 28.09. 21:30 0
Mi, 28.09. 21:00 0
Mi, 28.09. 20:30 0
Link zu dieser Seite / Seite empfehlen

Das Wetter in ...